Pagrindinis puslapis
METAR-TAF:

METAR-TAF

Oro uostai :

Džordžtaunas, Didysis Kaimanas, Kaimanų salos

platuma: 19-17N, ilguma: 081-21W, Aukštis: 3 m

Dabartinis oras

Ataskaita buvo paskelbta 31 minutes, ne 13:00 UTC
Vėjas 8 kt iš Rytų
Temperatūra 27°C
Drėgmė 79%
Slėgis 1017 hPa
Matomumas 10 km arba daugiau
Mažai debesys ne aukštis 2000 ft

METAR: MWCR 021300Z 08008KT 9999 FEW020 27/23 Q1017

Laikas: 08:31 (13:31 UTC)

Prognozė

Ataskaita buvo paskelbta 2 valandos ir 31 minutes, ne 11:00 UTC
Prognozė galioja nuo 02 metu 12 UTC su 03 metu 12 UTC
Vėjas 16 kt iš Rytų/Šiaurės Rytų
Matomumas 10 km arba daugiau
Mažai debesys ne aukštis 1800 ft

TAF: MWCR 021100Z 0212/0312 07016KT 9999 FEW018

Orai ataskaitas ir orų prognozės (METAR, TAF).

turimą stotys yra geltonos ir raudonos taškus žemėlapyje.

Perkelti pele per norėdami pamatyti stoties vardą.

Tada spustelėkite, norėdami matyti oro stebėjimo ir prognozės.

Norėdami pakeisti žemėlapį: spustelėkite ant žalios mygtukų su juodo kryžiaus žemyn,; žalią mygtuką su brūkšneliu, jei norite nutolinti; arba žalių rodyklių gretimoms žemėlapius.


METAR-TAF: